Time;durP1;ratioP1;P1;durP2;ratioP2;P2;SDS_P1;SDS_P2;PMS_P1;PMS_P2;Temp;Humidity;BMP_temperature;BMP_pressure;BME280_temperature;BME280_humidity;BME280_pressure;Samples;Min_cycle;Max_cycle;Signal;HPM_P1;HPM_P2
2023/06/24 00:00:37;;;;;;;29.73;24.45;;;;;;;19.91;86.10;102308.31;4993991;28;20041;-68
2023/06/24 00:03:03;;;;;;;29.92;26.05;;;;;;;19.91;86.09;102296.25;4993954;28;20198;-69
2023/06/24 00:05:28;;;;;;;28.48;23.90;;;;;;;19.89;86.68;102302.19;4993886;28;20028;-69
2023/06/24 00:07:56;;;;;;;28.17;23.92;;;;;;;19.87;86.79;102298.94;4993904;28;20359;-69
2023/06/24 00:10:22;;;;;;;29.95;25.05;;;;;;;19.78;86.21;102298.09;4993759;28;20065;-69
2023/06/24 00:12:48;;;;;;;28.95;25.30;;;;;;;19.74;86.18;102302.72;4994656;28;20062;-68
2023/06/24 00:15:13;;;;;;;29.05;24.25;;;;;;;19.72;86.72;102313.44;5013131;28;20030;-68
2023/06/24 00:17:40;;;;;;;28.58;23.95;;;;;;;19.67;86.02;102320.06;5013135;28;20030;-69
2023/06/24 00:20:08;;;;;;;28.70;24.20;;;;;;;19.58;86.81;102322.91;5013345;28;20033;-69
2023/06/24 00:22:34;;;;;;;31.17;26.58;;;;;;;19.50;87.89;102315.31;5011715;28;20490;-68
2023/06/24 00:25:00;;;;;;;30.33;26.27;;;;;;;19.44;88.86;102317.47;5013082;28;20129;-68
2023/06/24 00:27:25;;;;;;;31.23;27.17;;;;;;;19.39;89.15;102314.81;5013176;28;20022;-67
2023/06/24 00:29:51;;;;;;;30.90;26.70;;;;;;;19.35;89.85;102327.03;5012867;28;20053;-68
2023/06/24 00:32:16;;;;;;;28.90;25.80;;;;;;;19.30;89.69;102311.19;5012929;28;20449;-67
2023/06/24 00:34:43;;;;;;;28.73;25.35;;;;;;;19.30;90.66;102317.63;5012851;28;20104;-68
2023/06/24 00:37:09;;;;;;;30.65;26.63;;;;;;;19.30;90.54;102323.25;5012787;28;20029;-68
2023/06/24 00:39:34;;;;;;;30.60;25.90;;;;;;;19.27;90.98;102321.09;5012739;28;20026;-69
2023/06/24 00:41:59;;;;;;;30.40;27.08;;;;;;;19.32;90.84;102332.16;5012799;28;20485;-68
2023/06/24 00:44:25;;;;;;;32.08;27.58;;;;;;;19.31;90.71;102327.72;5012712;28;20036;-68
2023/06/24 00:46:50;;;;;;;31.95;26.95;;;;;;;19.35;90.76;102332.66;5012299;28;20312;-68
2023/06/24 00:49:16;;;;;;;30.77;27.27;;;;;;;19.35;91.12;102336.28;5012303;28;20034;-68
2023/06/24 00:51:47;;;;;;;29.80;25.75;;;;;;;19.31;90.94;102332.47;5005501;28;20022;-68
2023/06/24 00:54:12;;;;;;;30.15;25.75;;;;;;;19.30;91.52;102336.44;4992840;28;20038;-68
2023/06/24 00:56:38;;;;;;;28.83;24.00;;;;;;;19.27;90.98;102337.13;4992850;28;20537;-69
2023/06/24 00:59:04;;;;;;;27.58;23.38;;;;;;;19.25;91.21;102337.44;4992848;28;20069;-69
2023/06/24 01:01:33;;;;;;;28.65;24.25;;;;;;;19.15;91.95;102323.72;4992777;28;20471;-69
2023/06/24 01:03:59;;;;;;;27.88;22.83;;;;;;;19.08;90.13;102327.00;4992780;28;20033;-69
2023/06/24 01:06:28;;;;;;;28.30;23.60;;;;;;;19.00;89.94;102319.41;4992805;28;20083;-68
2023/06/24 01:08:56;;;;;;;27.65;21.98;;;;;;;18.96;89.92;102319.25;4992659;28;20022;-68
2023/06/24 01:11:22;;;;;;;27.80;22.13;;;;;;;18.90;89.91;102326.16;4992916;28;20027;-68
2023/06/24 01:13:47;;;;;;;27.25;22.88;;;;;;;18.83;91.38;102314.59;4992622;28;20108;-69
2023/06/24 01:16:23;;;;;;;28.58;23.77;;;;;;;18.81;91.61;102311.31;4992495;28;20042;-68
2023/06/24 01:18:58;;;;;;;27.63;23.48;;;;;;;18.75;92.15;102307.00;4991338;28;20030;-68
2023/06/24 01:21:42;;;;;;;26.90;22.77;;;;;;;18.69;91.87;102311.94;4992595;28;20466;-68
2023/06/24 01:24:42;;;;;;;27.83;23.65;;;;;;;18.65;92.51;102306.16;4992603;28;20038;-68
2023/06/24 01:27:25;;;;;;;27.65;23.00;;;;;;;18.61;92.95;102315.56;4992543;28;20146;-68
2023/06/24 01:30:17;;;;;;;28.65;22.75;;;;;;;18.60;93.13;102309.09;4992457;28;20117;-68
2023/06/24 01:32:52;;;;;;;26.80;22.85;;;;;;;18.53;92.77;102301.16;4991641;28;20490;-68
2023/06/24 01:35:22;;;;;;;25.83;21.73;;;;;;;18.47;93.27;102294.06;4992461;28;20027;-68
2023/06/24 01:37:51;;;;;;;24.48;20.42;;;;;;;18.45;88.54;102301.97;4992399;28;20108;-68
2023/06/24 01:40:40;;;;;;;25.65;21.08;;;;;;;18.40;90.99;102290.94;4992372;28;20035;-68
2023/06/24 01:43:08;;;;;;;25.27;20.38;;;;;;;18.39;89.03;102297.69;4992731;28;20034;-68
2023/06/24 01:46:04;;;;;;;25.77;20.83;;;;;;;18.36;90.21;102289.91;4992296;28;20039;-68
2023/06/24 01:48:35;;;;;;;25.95;21.30;;;;;;;18.28;90.97;102290.72;4989130;28;20117;-69
2023/06/24 01:51:09;;;;;;;26.33;20.73;;;;;;;18.30;90.71;102300.44;4992307;28;20105;-69
2023/06/24 01:53:42;;;;;;;24.95;20.73;;;;;;;18.18;90.13;102280.63;4999593;28;20067;-68
2023/06/24 01:56:10;;;;;;;25.50;21.00;;;;;;;18.16;91.27;102291.34;5012002;28;20117;-69
2023/06/24 01:58:36;;;;;;;26.27;21.58;;;;;;;18.06;90.70;102287.66;5012397;28;20025;-69
2023/06/24 02:01:03;;;;;;;25.30;20.58;;;;;;;18.01;89.12;102292.59;5015792;28;20034;-69
2023/06/24 02:03:31;;;;;;;24.70;20.77;;;;;;;17.97;89.73;102291.56;5015583;28;20026;-69
2023/06/24 02:05:57;;;;;;;25.15;20.38;;;;;;;17.93;89.15;102294.16;5015353;28;20167;-69
2023/06/24 02:08:24;;;;;;;24.17;18.45;;;;;;;17.95;85.96;102288.25;5015719;28;20058;-70
2023/06/24 02:10:51;;;;;;;25.38;19.90;;;;;;;17.95;87.80;102288.25;5015689;28;20596;-69
2023/06/24 02:13:17;;;;;;;23.45;18.50;;;;;;;17.86;86.00;102286.19;5015568;28;20033;-69
2023/06/24 02:15:45;;;;;;;25.85;18.80;;;;;;;17.88;85.29;102281.13;5015463;28;20033;-70
2023/06/24 02:18:12;;;;;;;23.25;18.35;;;;;;;17.85;86.04;102280.94;5015512;28;20056;-69
2023/06/24 02:20:39;;;;;;;22.83;16.33;;;;;;;17.76;83.51;102290.13;5015403;28;20035;-69
2023/06/24 02:23:08;;;;;;;22.75;16.85;;;;;;;17.72;82.68;102291.06;5015383;28;20108;-68
2023/06/24 02:25:33;;;;;;;22.77;16.30;;;;;;;17.71;83.79;102289.41;5015176;28;20034;-68
2023/06/24 02:27:59;;;;;;;22.83;16.80;;;;;;;17.68;85.49;102290.91;5014887;28;20029;-68
2023/06/24 02:30:25;;;;;;;21.88;16.75;;;;;;;17.67;84.50;102294.00;5015232;28;20026;-68
2023/06/24 02:32:51;;;;;;;22.88;16.45;;;;;;;17.61;84.46;102291.34;5015133;28;20022;-68
2023/06/24 02:35:16;;;;;;;21.70;16.38;;;;;;;17.57;83.54;102287.50;5015046;28;20029;-68
2023/06/24 02:37:42;;;;;;;20.52;14.75;;;;;;;17.53;83.56;102286.50;5015044;28;20022;-67
2023/06/24 02:40:08;;;;;;;21.73;15.35;;;;;;;17.53;83.30;102288.47;5013783;28;20038;-67
2023/06/24 02:42:34;;;;;;;20.42;14.18;;;;;;;17.50;83.66;102289.94;5015018;28;20034;-67
2023/06/24 02:45:00;;;;;;;19.90;13.98;;;;;;;17.46;82.42;102286.16;5015089;28;20038;-68
2023/06/24 02:47:26;;;;;;;21.95;15.05;;;;;;;17.42;82.63;102282.31;5014932;28;20033;-68
2023/06/24 02:49:53;;;;;;;21.33;15.18;;;;;;;17.39;82.33;102281.00;5014766;28;20375;-67
2023/06/24 02:52:19;;;;;;;22.08;15.18;;;;;;;17.38;82.31;102296.13;5014783;28;20038;-67
2023/06/24 02:54:45;;;;;;;20.88;14.77;;;;;;;17.35;83.04;102291.16;5014595;28;20025;-67
2023/06/24 02:57:10;;;;;;;22.50;16.05;;;;;;;17.33;82.75;102287.03;5013302;28;20394;-67
2023/06/24 02:59:37;;;;;;;20.48;14.60;;;;;;;17.30;83.98;102294.09;5014517;28;20026;-68
2023/06/24 03:02:04;;;;;;;20.70;14.63;;;;;;;17.26;84.02;102293.06;5014728;28;20046;-67
2023/06/24 03:04:30;;;;;;;21.90;14.57;;;;;;;17.23;83.91;102299.28;5013722;28;20108;-67
2023/06/24 03:06:57;;;;;;;22.67;15.70;;;;;;;17.18;84.55;102302.19;4994965;28;20110;-67
2023/06/24 03:09:23;;;;;;;20.65;14.52;;;;;;;17.17;85.53;102298.59;4994801;28;20050;-67
2023/06/24 03:11:48;;;;;;;20.60;14.50;;;;;;;17.12;86.93;102301.50;4994232;28;20046;-68
2023/06/24 03:14:13;;;;;;;21.80;14.52;;;;;;;17.12;87.39;102301.50;4994624;28;20459;-67
2023/06/24 03:16:39;;;;;;;21.02;15.10;;;;;;;17.05;88.00;102299.13;4994649;28;20022;-67
2023/06/24 03:19:04;;;;;;;21.17;14.88;;;;;;;17.00;87.96;102297.28;4994634;28;20487;-68
2023/06/24 03:21:30;;;;;;;21.80;15.30;;;;;;;16.97;88.46;102300.72;4994387;28;20093;-67
2023/06/24 03:23:56;;;;;;;22.48;15.80;;;;;;;16.91;89.13;102304.72;4994376;28;20054;-67
2023/06/24 03:26:22;;;;;;;20.17;15.50;;;;;;;16.90;89.43;102299.44;4994422;28;20038;-67
2023/06/24 03:28:48;;;;;;;21.15;15.02;;;;;;;16.86;90.08;102295.66;4994205;28;20529;-68
2023/06/24 03:31:17;;;;;;;21.20;15.50;;;;;;;16.76;90.99;102289.16;4994388;28;20050;-68
2023/06/24 03:33:44;;;;;;;20.83;14.65;;;;;;;16.77;90.69;102287.97;4994362;28;20073;-68
2023/06/24 03:36:10;;;;;;;22.02;14.70;;;;;;;16.76;91.30;102291.94;5005997;28;20032;-68
2023/06/24 03:38:35;;;;;;;22.10;14.90;;;;;;;16.74;91.30;102297.00;5013731;28;20113;-68
2023/06/24 03:41:01;;;;;;;21.02;14.20;;;;;;;16.70;91.81;102304.34;5013856;28;20479;-68
2023/06/24 03:43:26;;;;;;;20.90;14.30;;;;;;;16.71;92.06;102300.41;5013667;28;20065;-68
2023/06/24 03:45:51;;;;;;;20.15;14.68;;;;;;;16.69;92.15;102297.09;5004466;28;20057;-68
2023/06/24 03:48:16;;;;;;;22.17;15.25;;;;;;;16.68;92.33;102299.09;4994006;28;20030;-67
2023/06/24 03:50:42;;;;;;;21.10;14.80;;;;;;;16.73;91.75;102300.94;4994055;28;20114;-67
2023/06/24 03:53:07;;;;;;;21.70;15.13;;;;;;;17.00;91.00;102300.06;4993874;28;20446;-68
2023/06/24 03:55:32;;;;;;;22.65;15.45;;;;;;;17.38;89.53;102306.50;4993906;28;20037;-68
2023/06/24 03:57:58;;;;;;;21.10;14.60;;;;;;;17.74;87.72;102312.00;4994050;28;20018;-69
2023/06/24 04:00:23;;;;;;;21.73;14.32;;;;;;;18.06;85.22;102306.44;4993963;28;20556;-69
2023/06/24 04:02:48;;;;;;;21.63;15.07;;;;;;;17.96;84.72;102312.28;4993818;28;20030;-69
2023/06/24 04:05:14;;;;;;;21.65;14.77;;;;;;;17.72;84.75;102313.47;4993747;28;20022;-69
2023/06/24 04:07:39;;;;;;;20.80;13.95;;;;;;;17.55;86.32;102314.16;4993652;28;20030;-68
2023/06/24 04:10:08;;;;;;;20.38;14.35;;;;;;;17.43;86.44;102312.75;4993899;28;20030;-69
2023/06/24 04:12:35;;;;;;;21.83;15.10;;;;;;;17.32;87.94;102311.38;4992225;28;20506;-68
2023/06/24 04:15:05;;;;;;;21.85;14.95;;;;;;;17.20;87.92;102311.09;4993440;28;20057;-68
2023/06/24 04:17:30;;;;;;;20.95;14.82;;;;;;;17.17;88.56;102311.72;4993702;28;20125;-68
2023/06/24 04:19:56;;;;;;;21.48;14.43;;;;;;;17.14;89.46;102311.22;4993578;28;20112;-68
2023/06/24 04:22:23;;;;;;;22.08;15.00;;;;;;;17.09;89.43;102307.72;4993469;28;20165;-68
2023/06/24 04:24:48;;;;;;;20.95;14.65;;;;;;;17.07;90.75;102310.81;4993473;28;20034;-68
2023/06/24 04:27:13;;;;;;;21.92;15.88;;;;;;;17.10;90.99;102310.19;4993411;28;20032;-69
2023/06/24 04:29:38;;;;;;;22.33;15.60;;;;;;;17.14;91.37;102316.00;4993249;28;20129;-68
2023/06/24 04:32:04;;;;;;;22.63;16.17;;;;;;;17.10;92.42;102315.78;4993381;28;20064;-68
2023/06/24 04:34:30;;;;;;;26.02;16.98;;;;;;;17.10;92.66;102307.41;4991770;28;20117;-67
2023/06/24 04:36:55;;;;;;;22.95;16.48;;;;;;;17.16;93.08;102310.91;4993011;28;20533;-67
2023/06/24 04:39:20;;;;;;;24.17;17.02;;;;;;;17.21;92.87;102313.56;4993061;28;20364;-67
2023/06/24 04:41:46;;;;;;;23.65;18.42;;;;;;;17.22;93.17;102309.63;4993218;28;20018;-67
2023/06/24 04:44:12;;;;;;;24.50;18.83;;;;;;;17.27;93.37;102317.09;4993395;28;20034;-68
2023/06/24 04:46:37;;;;;;;24.63;19.02;;;;;;;17.33;93.29;102315.84;4993085;28;20027;-68
2023/06/24 04:49:03;;;;;;;25.45;19.48;;;;;;;17.39;93.14;102322.09;4991196;28;20031;-68
2023/06/24 04:51:28;;;;;;;26.67;20.15;;;;;;;17.44;91.83;102322.81;4993174;28;20404;-67
2023/06/24 04:53:55;;;;;;;25.55;19.08;;;;;;;17.50;91.88;102319.91;4992534;28;20023;-67
2023/06/24 04:56:20;;;;;;;25.05;18.30;;;;;;;17.51;90.49;102319.56;4992825;28;20101;-68
2023/06/24 04:58:46;;;;;;;25.27;18.13;;;;;;;17.60;89.21;102319.66;4992924;28;20053;-67
2023/06/24 05:01:11;;;;;;;25.45;19.45;;;;;;;17.66;89.65;102323.16;4992776;28;20455;-68
2023/06/24 05:03:36;;;;;;;24.95;17.63;;;;;;;17.76;88.42;102314.47;4992602;28;20031;-67
2023/06/24 05:06:02;;;;;;;25.60;19.02;;;;;;;17.85;87.86;102320.13;4992624;28;20045;-67
2023/06/24 05:08:27;;;;;;;25.20;17.85;;;;;;;17.90;86.41;102323.63;4992495;28;20034;-67
2023/06/24 05:10:52;;;;;;;24.85;17.40;;;;;;;17.96;85.95;102324.34;4992733;28;20026;-67
2023/06/24 05:13:17;;;;;;;25.42;18.17;;;;;;;17.98;85.24;102318.41;4992547;28;20085;-67
2023/06/24 05:15:43;;;;;;;25.33;18.70;;;;;;;17.99;86.08;102311.66;4992401;28;20030;-68
2023/06/24 05:18:08;;;;;;;25.77;18.60;;;;;;;18.02;85.80;102309.06;4992454;28;20109;-68
2023/06/24 05:20:33;;;;;;;25.77;18.85;;;;;;;18.11;85.79;102317.50;4991163;28;20393;-69
2023/06/24 05:22:59;;;;;;;26.20;18.63;;;;;;;18.16;85.15;102308.94;4992508;28;20030;-69
2023/06/24 05:25:24;;;;;;;26.48;19.13;;;;;;;18.20;85.48;102307.16;4992515;28;20034;-69
2023/06/24 05:27:49;;;;;;;27.52;19.88;;;;;;;18.23;85.46;102309.31;4992391;28;20045;-69
2023/06/24 05:30:15;;;;;;;26.38;18.77;;;;;;;18.29;85.84;102307.19;4992426;28;20402;-68
2023/06/24 05:32:40;;;;;;;26.52;19.38;;;;;;;18.31;85.35;102316.09;4992284;28;20061;-68
2023/06/24 05:35:06;;;;;;;27.27;20.65;;;;;;;18.38;85.68;102315.63;4995041;28;20382;-68
2023/06/24 05:37:31;;;;;;;27.63;19.75;;;;;;;18.49;84.73;102319.81;5011968;28;20034;-69
2023/06/24 05:39:57;;;;;;;27.67;20.70;;;;;;;18.56;85.57;102319.34;5011895;28;20026;-68
2023/06/24 05:42:22;;;;;;;27.83;20.33;;;;;;;18.62;85.12;102326.44;5011914;28;20026;-68
2023/06/24 05:44:48;;;;;;;26.65;20.75;;;;;;;18.67;85.20;102319.84;5011843;28;20046;-68
2023/06/24 05:47:14;;;;;;;27.42;19.80;;;;;;;18.75;83.03;102321.03;5011760;28;20053;-68
2023/06/24 05:49:39;;;;;;;26.13;18.88;;;;;;;18.83;83.39;102323.03;5011802;28;20398;-68
2023/06/24 05:52:05;;;;;;;26.05;19.73;;;;;;;18.90;82.29;102323.34;5011685;28;20365;-67
2023/06/24 05:54:30;;;;;;;27.42;19.65;;;;;;;18.95;82.05;102328.81;5011556;28;20033;-67
2023/06/24 05:56:56;;;;;;;28.30;20.08;;;;;;;19.00;82.37;102323.06;5011715;28;20134;-68
2023/06/24 05:59:21;;;;;;;27.98;20.42;;;;;;;19.04;84.06;102328.84;5011914;28;20478;-68
2023/06/24 06:01:46;;;;;;;26.27;20.48;;;;;;;19.07;82.78;102322.59;5011746;28;20022;-67
2023/06/24 06:04:12;;;;;;;26.38;19.67;;;;;;;19.16;81.61;102331.00;5011673;28;20022;-67
2023/06/24 06:06:37;;;;;;;25.77;19.55;;;;;;;19.21;80.22;102327.19;5010174;28;20036;-68
2023/06/24 06:09:02;;;;;;;25.63;19.42;;;;;;;19.22;78.48;102317.63;5011853;28;20544;-68
2023/06/24 06:11:28;;;;;;;26.23;18.73;;;;;;;19.32;79.73;102318.13;5011765;28;20525;-69
2023/06/24 06:13:53;;;;;;;26.40;20.10;;;;;;;19.34;80.67;102331.84;5011652;28;20022;-67
2023/06/24 06:16:18;;;;;;;25.80;19.10;;;;;;;19.36;76.05;102331.50;5011548;28;20403;-67
2023/06/24 06:18:44;;;;;;;25.50;18.17;;;;;;;19.39;76.66;102328.84;5011400;28;20505;-68
2023/06/24 06:21:09;;;;;;;24.55;17.80;;;;;;;19.50;76.54;102332.16;5009960;28;20433;-68
2023/06/24 06:23:34;;;;;;;23.92;16.85;;;;;;;19.51;73.12;102327.34;5011500;28;20026;-67
2023/06/24 06:26:00;;;;;;;24.73;17.27;;;;;;;19.55;73.76;102334.78;5011390;28;20025;-68
2023/06/24 06:28:25;;;;;;;23.00;15.60;;;;;;;19.59;73.06;102337.75;5011005;28;20421;-68
2023/06/24 06:30:50;;;;;;;23.88;16.23;;;;;;;19.61;71.69;102336.25;5011411;28;20034;-68
2023/06/24 06:33:16;;;;;;;23.95;16.33;;;;;;;19.62;71.70;102334.28;5011287;28;20037;-69
2023/06/24 06:35:41;;;;;;;23.23;16.15;;;;;;;19.63;70.36;102338.75;5011184;28;20030;-68
2023/06/24 06:38:06;;;;;;;23.17;15.57;;;;;;;19.68;72.42;102338.56;5011373;28;20038;-68
2023/06/24 06:40:32;;;;;;;24.55;16.63;;;;;;;19.73;72.43;102341.22;5011412;28;20032;-67
2023/06/24 06:42:57;;;;;;;22.23;15.48;;;;;;;19.79;71.16;102344.63;5011305;28;20084;-64
2023/06/24 06:45:22;;;;;;;21.65;14.75;;;;;;;19.92;70.14;102343.66;4992217;28;20133;-65
2023/06/24 06:47:49;;;;;;;23.80;15.13;;;;;;;19.94;69.57;102344.16;4975831;28;20368;-66
2023/06/24 06:50:15;;;;;;;24.45;15.57;;;;;;;20.04;70.01;102351.41;5007316;28;20080;-66
2023/06/24 06:52:40;;;;;;;24.02;15.40;;;;;;;20.10;70.08;102350.06;5013380;28;20018;-65
2023/06/24 06:55:05;;;;;;;22.85;14.98;;;;;;;20.20;69.83;102353.69;5014673;28;20038;-66
2023/06/24 06:57:31;;;;;;;22.63;15.07;;;;;;;20.20;68.75;102351.69;5014573;28;20029;-66
2023/06/24 06:59:57;;;;;;;22.77;15.02;;;;;;;20.25;69.37;102359.09;5014661;28;20026;-66
2023/06/24 07:02:22;;;;;;;23.65;15.15;;;;;;;20.34;68.78;102364.69;5009020;28;20561;-65
2023/06/24 07:04:47;;;;;;;22.15;15.20;;;;;;;20.40;69.57;102369.78;5004228;28;20508;-65
2023/06/24 07:07:13;;;;;;;23.17;15.68;;;;;;;20.36;67.98;102371.63;5007026;28;20390;-65
2023/06/24 07:09:38;;;;;;;22.48;14.75;;;;;;;20.46;69.76;102369.59;4994944;28;20038;-65
2023/06/24 07:12:05;;;;;;;24.27;15.80;;;;;;;20.44;68.83;102375.56;4994921;28;20037;-66
2023/06/24 07:14:30;;;;;;;23.38;15.55;;;;;;;20.50;68.27;102362.16;4994713;28;20036;-66
2023/06/24 07:16:56;;;;;;;22.10;14.57;;;;;;;20.60;68.08;102370.19;4994707;28;20022;-66
2023/06/24 07:19:21;;;;;;;22.50;14.85;;;;;;;20.68;68.20;102372.16;4994574;28;20026;-65
2023/06/24 07:21:46;;;;;;;23.65;15.52;;;;;;;20.66;67.19;102370.81;5011357;28;20026;-66
2023/06/24 07:24:12;;;;;;;22.60;15.45;;;;;;;20.77;68.16;102368.50;5014162;28;20026;-65
2023/06/24 07:26:37;;;;;;;22.48;14.15;;;;;;;20.83;67.93;102362.31;5014298;28;20057;-65
2023/06/24 07:29:06;;;;;;;22.13;15.10;;;;;;;20.84;66.41;102375.22;5014380;28;20454;-65
2023/06/24 07:31:31;;;;;;;22.58;15.65;;;;;;;20.79;65.42;102371.78;5014200;28;20026;-65
2023/06/24 07:33:56;;;;;;;22.63;14.98;;;;;;;20.87;66.35;102370.91;5014075;28;20504;-66
2023/06/24 07:36:22;;;;;;;23.73;15.60;;;;;;;20.91;66.48;102369.06;5000330;28;20108;-66
2023/06/24 07:38:47;;;;;;;23.20;14.52;;;;;;;21.02;66.00;102366.66;4994395;28;20371;-66
2023/06/24 07:41:12;;;;;;;23.35;15.70;;;;;;;21.13;66.27;102372.72;4994525;28;20026;-66
2023/06/24 07:43:38;;;;;;;23.48;15.10;;;;;;;21.22;65.34;102369.84;4987250;28;20051;-66
2023/06/24 07:46:04;;;;;;;22.85;14.30;;;;;;;21.15;62.33;102362.78;4986128;28;20042;-66
2023/06/24 07:48:29;;;;;;;20.63;13.48;;;;;;;21.28;63.51;102363.66;4983676;28;20019;-67
2023/06/24 07:50:54;;;;;;;22.58;13.70;;;;;;;21.38;61.43;102373.69;4987923;28;20022;-67
2023/06/24 07:53:20;;;;;;;21.27;13.77;;;;;;;21.42;60.63;102373.84;4983622;28;20025;-66
2023/06/24 07:55:45;;;;;;;20.92;13.10;;;;;;;21.49;61.13;102365.66;4983730;28;20018;-67
2023/06/24 07:58:11;;;;;;;23.90;14.30;;;;;;;21.64;62.50;102378.31;4979610;28;20053;-66
2023/06/24 08:00:36;;;;;;;21.85;13.90;;;;;;;21.65;61.38;102371.50;4974780;28;20031;-67
2023/06/24 08:03:02;;;;;;;22.25;14.55;;;;;;;21.65;60.94;102363.06;5004773;28;20038;-65
2023/06/24 08:05:27;;;;;;;22.08;14.52;;;;;;;21.74;61.63;102366.63;5013572;28;20033;-67
2023/06/24 08:07:53;;;;;;;22.02;14.05;;;;;;;21.87;62.36;102366.66;5013672;28;20160;-66
2023/06/24 08:10:18;;;;;;;21.88;13.90;;;;;;;21.99;60.88;102366.69;5013561;28;20034;-66
2023/06/24 08:12:43;;;;;;;20.50;13.18;;;;;;;22.03;58.21;102366.81;5013567;28;20463;-66
2023/06/24 08:15:10;;;;;;;21.25;12.88;;;;;;;22.03;58.97;102362.00;4979192;28;20491;-66
2023/06/24 08:17:35;;;;;;;19.50;12.10;;;;;;;22.08;57.14;102356.13;4973107;28;20475;-66
2023/06/24 08:20:03;;;;;;;21.05;12.13;;;;;;;22.17;57.02;102355.22;4973157;28;20058;-67
2023/06/24 08:22:28;;;;;;;19.65;11.98;;;;;;;22.24;56.80;102353.47;4972175;28;20034;-67
2023/06/24 08:24:54;;;;;;;19.67;11.80;;;;;;;22.41;56.59;102354.44;4971758;28;20037;-66
2023/06/24 08:27:19;;;;;;;19.52;11.65;;;;;;;22.47;54.54;102350.22;4973225;28;20042;-66
2023/06/24 08:29:44;;;;;;;18.08;10.50;;;;;;;22.57;54.01;102348.94;4972817;28;20046;-67
2023/06/24 08:32:09;;;;;;;17.60;9.90;;;;;;;22.58;52.00;102347.75;4972952;28;20566;-67
2023/06/24 08:34:35;;;;;;;16.67;10.02;;;;;;;22.63;51.43;102364.44;4972645;28;20093;-67
2023/06/24 08:37:00;;;;;;;16.08;9.52;;;;;;;22.69;51.14;102343.28;4973153;28;20478;-66
2023/06/24 08:39:26;;;;;;;17.83;9.80;;;;;;;22.73;50.73;102337.75;4972870;28;20437;-67
2023/06/24 08:41:52;;;;;;;16.65;9.48;;;;;;;22.86;49.66;102339.38;4973157;28;20109;-67
2023/06/24 08:44:17;;;;;;;16.00;9.35;;;;;;;23.02;50.36;102342.28;4972787;28;20522;-67
2023/06/24 08:46:43;;;;;;;17.10;9.38;;;;;;;23.16;50.56;102346.75;4972941;28;20045;-66
2023/06/24 08:49:15;;;;;;;16.38;9.38;;;;;;;23.17;47.45;102335.09;4985031;28;20030;-67
2023/06/24 08:51:41;;;;;;;17.00;8.93;;;;;;;23.35;48.81;102343.28;4992206;28;20049;-68
2023/06/24 08:54:09;;;;;;;15.80;9.15;;;;;;;23.42;47.98;102339.84;4990483;28;20037;-68
2023/06/24 08:56:38;;;;;;;16.70;9.63;;;;;;;23.35;48.83;102338.47;4992016;28;20491;-68
2023/06/24 08:59:04;;;;;;;15.18;9.23;;;;;;;23.49;49.77;102340.88;4992007;28;20563;-67
2023/06/24 09:01:30;;;;;;;16.73;9.32;;;;;;;23.57;46.60;102338.25;4991840;28;20038;-67
2023/06/24 09:03:56;;;;;;;15.23;9.32;;;;;;;23.63;46.40;102336.81;4991935;28;20081;-67
2023/06/24 09:06:21;;;;;;;15.55;8.95;;;;;;;23.73;46.57;102329.84;4992240;28;20033;-68
2023/06/24 09:08:56;;;;;;;17.52;9.55;;;;;;;23.84;47.12;102328.13;4991109;28;20037;-67
2023/06/24 09:11:27;;;;;;;16.30;9.60;;;;;;;23.75;47.66;102333.13;4991940;28;20034;-68
2023/06/24 09:13:59;;;;;;;14.70;8.90;;;;;;;23.83;47.78;102338.59;4992080;28;20026;-68
2023/06/24 09:16:25;;;;;;;17.10;9.30;;;;;;;23.99;45.82;102335.81;4992112;28;20030;-67
2023/06/24 09:18:51;;;;;;;14.68;8.80;;;;;;;24.06;45.34;102329.53;4990777;28;20281;-67
2023/06/24 09:21:27;;;;;;;16.63;9.20;;;;;;;24.12;45.23;102338.59;5003814;28;20026;-68
2023/06/24 09:23:53;;;;;;;16.90;9.40;;;;;;;24.08;44.39;102332.00;5009953;28;20065;-70
2023/06/24 09:26:19;;;;;;;15.70;8.75;;;;;;;24.13;46.10;102321.25;5011125;28;20030;-67
2023/06/24 09:28:49;;;;;;;14.50;8.93;;;;;;;24.27;45.56;102325.63;5010578;28;20104;-68
2023/06/24 09:31:14;;;;;;;15.95;9.23;;;;;;;24.40;45.18;102318.66;5011499;28;20036;-67
2023/06/24 09:33:39;;;;;;;14.50;8.75;;;;;;;24.54;45.70;102312.53;5011447;28;20116;-70
2023/06/24 09:36:05;;;;;;;16.10;9.10;;;;;;;24.52;43.43;102302.78;5009659;28;20022;-71
2023/06/24 09:38:38;;;;;;;13.90;8.40;;;;;;;24.51;43.37;102306.81;5010859;28;20144;-70
2023/06/24 09:41:04;;;;;;;16.30;8.88;;;;;;;24.52;42.80;102312.09;5011056;28;20061;-67
2023/06/24 09:43:31;;;;;;;16.08;8.98;;;;;;;24.54;43.85;102309.72;5010991;28;20118;-68
2023/06/24 09:45:57;;;;;;;15.05;8.57;;;;;;;24.66;45.13;102299.47;5009542;28;20038;-68
2023/06/24 09:48:22;;;;;;;15.38;9.02;;;;;;;24.73;44.41;102297.66;5010737;28;20122;-69
2023/06/24 09:50:48;;;;;;;15.43;8.60;;;;;;;24.88;44.99;102298.81;5010917;28;20491;-69
2023/06/24 09:53:14;;;;;;;15.45;8.98;;;;;;;24.99;43.58;102298.19;5009471;28;20034;-68
2023/06/24 09:55:43;;;;;;;15.23;8.80;;;;;;;25.05;43.30;102296.72;5010574;28;20033;-69
2023/06/24 09:58:11;;;;;;;16.00;8.77;;;;;;;25.00;43.32;102289.34;5010543;28;20022;-69
2023/06/24 10:00:37;;;;;;;14.35;8.60;;;;;;;25.13;44.04;102290.03;5010707;28;20025;-67
2023/06/24 10:03:02;;;;;;;15.45;8.75;;;;;;;25.18;43.72;102292.53;5010596;28;20480;-68
2023/06/24 10:05:28;;;;;;;16.23;8.55;;;;;;;25.28;44.45;102293.97;5010830;28;20056;-68
2023/06/24 10:07:54;;;;;;;13.50;8.27;;;;;;;25.47;43.71;102289.53;5010736;28;20124;-68
2023/06/24 10:10:19;;;;;;;15.93;8.60;;;;;;;25.56;42.98;102292.94;5010620;28;20034;-69
2023/06/24 10:12:45;;;;;;;15.88;8.95;;;;;;;25.75;43.46;102296.91;5010628;28;20038;-68
2023/06/24 10:15:10;;;;;;;16.40;8.75;;;;;;;25.66;42.46;102298.00;5010361;28;20037;-68
2023/06/24 10:17:37;;;;;;;14.82;8.45;;;;;;;25.71;44.40;102288.34;5010636;28;20033;-69
2023/06/24 10:20:08;;;;;;;15.32;8.70;;;;;;;25.89;44.73;102297.16;5011925;28;20057;-69
2023/06/24 10:22:35;;;;;;;14.38;8.55;;;;;;;25.95;43.20;102292.84;5013477;28;20092;-68
2023/06/24 10:25:04;;;;;;;15.95;8.88;;;;;;;25.91;42.88;102294.78;4997335;28;20038;-69
2023/06/24 10:27:38;;;;;;;15.32;8.70;;;;;;;25.84;42.49;102286.16;4994601;28;20034;-69
2023/06/24 10:30:04;;;;;;;16.63;8.98;;;;;;;25.97;43.62;102292.44;4994894;28;20054;-68
2023/06/24 10:32:41;;;;;;;14.98;8.75;;;;;;;25.92;43.18;102284.28;4995011;28;20030;-68
2023/06/24 10:35:07;;;;;;;16.65;9.00;;;;;;;25.98;42.51;102288.41;4994874;28;20126;-68
2023/06/24 10:37:33;;;;;;;15.38;8.80;;;;;;;25.96;41.97;102279.47;4994692;28;20105;-68
2023/06/24 10:40:00;;;;;;;16.60;9.05;;;;;;;26.01;42.16;102285.66;4993899;28;20058;-68
2023/06/24 10:42:28;;;;;;;16.83;9.20;;;;;;;26.04;43.83;102286.09;4994537;28;20036;-67
2023/06/24 10:45:04;;;;;;;15.82;8.75;;;;;;;26.20;43.30;102280.31;4994942;28;20046;-70
2023/06/24 10:47:30;;;;;;;14.85;8.82;;;;;;;26.47;44.11;102266.94;4995036;28;20045;-70
2023/06/24 10:49:56;;;;;;;15.40;8.82;;;;;;;26.59;42.28;102271.59;4994227;28;20137;-69
2023/06/24 10:52:23;;;;;;;14.80;8.70;;;;;;;26.67;41.44;102281.84;4994532;28;20106;-69
2023/06/24 10:54:50;;;;;;;16.98;9.60;;;;;;;26.65;40.28;102281.41;4994585;28;20039;-68
2023/06/24 10:57:20;;;;;;;16.88;9.23;;;;;;;26.63;40.70;102275.28;4994160;28;20396;-67
2023/06/24 10:59:49;;;;;;;16.17;9.00;;;;;;;26.67;41.66;102266.81;5010449;28;20026;-67
2023/06/24 11:02:17;;;;;;;16.48;8.75;;;;;;;26.68;41.36;102263.63;5009744;28;20114;-68
2023/06/24 11:04:51;;;;;;;16.55;9.02;;;;;;;26.74;41.72;102283.94;4994187;28;20034;-66
2023/06/24 11:07:21;;;;;;;17.83;9.55;;;;;;;26.53;41.40;102253.25;4993889;28;20093;-67
2023/06/24 11:09:55;;;;;;;17.58;9.40;;;;;;;26.67;41.48;102272.50;4992200;28;20031;-67